sensor_id;sensor_type;location;lat;lon;timestamp;pressure;altitude;pressure_sealevel;temperature;humidity
35551;BME280;21655;46.056;13.616;2022-12-18T00:00:46;101565.63;;;4.96;100.00
35551;BME280;21655;46.056;13.616;2022-12-18T00:03:13;101582.88;;;4.98;100.00
35551;BME280;21655;46.056;13.616;2022-12-18T00:05:49;101585.19;;;4.92;100.00
35551;BME280;21655;46.056;13.616;2022-12-18T00:08:16;101588.38;;;4.98;100.00
35551;BME280;21655;46.056;13.616;2022-12-18T00:10:42;101599.13;;;5.01;100.00
35551;BME280;21655;46.056;13.616;2022-12-18T00:13:08;101600.88;;;5.02;100.00
35551;BME280;21655;46.056;13.616;2022-12-18T00:15:35;101589.25;;;4.99;100.00
35551;BME280;21655;46.056;13.616;2022-12-18T00:18:00;101597.38;;;5.00;100.00
35551;BME280;21655;46.056;13.616;2022-12-18T00:20:26;101595.09;;;4.94;100.00
35551;BME280;21655;46.056;13.616;2022-12-18T00:22:52;101615.84;;;4.98;100.00
35551;BME280;21655;46.056;13.616;2022-12-18T00:25:18;101612.84;;;5.01;100.00
35551;BME280;21655;46.056;13.616;2022-12-18T00:27:43;101624.97;;;4.99;100.00
35551;BME280;21655;46.056;13.616;2022-12-18T00:30:09;101621.03;;;4.90;100.00
35551;BME280;21655;46.056;13.616;2022-12-18T00:32:35;101614.00;;;4.99;100.00
35551;BME280;21655;46.056;13.616;2022-12-18T00:35:00;101617.50;;;5.01;100.00
35551;BME280;21655;46.056;13.616;2022-12-18T00:37:25;101621.47;;;4.97;100.00
35551;BME280;21655;46.056;13.616;2022-12-18T00:39:51;101627.97;;;4.96;100.00
35551;BME280;21655;46.056;13.616;2022-12-18T00:42:16;101623.22;;;4.98;100.00
35551;BME280;21655;46.056;13.616;2022-12-18T00:45:00;101614.31;;;4.94;100.00
35551;BME280;21655;46.056;13.616;2022-12-18T00:47:25;101619.81;;;4.94;100.00
35551;BME280;21655;46.056;13.616;2022-12-18T00:49:51;101608.16;;;4.91;100.00
35551;BME280;21655;46.056;13.616;2022-12-18T00:52:16;101628.06;;;4.94;100.00
35551;BME280;21655;46.056;13.616;2022-12-18T00:54:42;101624.31;;;4.95;100.00
35551;BME280;21655;46.056;13.616;2022-12-18T00:57:07;101621.81;;;4.92;100.00
35551;BME280;21655;46.056;13.616;2022-12-18T00:59:33;101618.63;;;4.86;100.00
35551;BME280;21655;46.056;13.616;2022-12-18T01:01:58;101626.78;;;4.87;100.00
35551;BME280;21655;46.056;13.616;2022-12-18T01:04:24;101626.88;;;4.86;100.00
35551;BME280;21655;46.056;13.616;2022-12-18T01:06:49;101633.59;;;4.82;100.00
35551;BME280;21655;46.056;13.616;2022-12-18T01:09:14;101624.59;;;4.80;100.00
35551;BME280;21655;46.056;13.616;2022-12-18T01:11:40;101637.66;;;4.76;100.00
35551;BME280;21655;46.056;13.616;2022-12-18T01:14:05;101635.91;;;4.75;100.00
35551;BME280;21655;46.056;13.616;2022-12-18T01:16:31;101623.28;;;4.73;100.00
35551;BME280;21655;46.056;13.616;2022-12-18T01:18:56;101625.34;;;4.69;100.00
35551;BME280;21655;46.056;13.616;2022-12-18T01:21:22;101624.81;;;4.64;100.00
35551;BME280;21655;46.056;13.616;2022-12-18T01:23:51;101610.09;;;4.65;100.00
35551;BME280;21655;46.056;13.616;2022-12-18T01:26:17;101626.47;;;4.67;100.00
35551;BME280;21655;46.056;13.616;2022-12-18T01:28:43;101622.97;;;4.65;100.00
35551;BME280;21655;46.056;13.616;2022-12-18T01:33:37;101631.31;;;4.63;100.00
35551;BME280;21655;46.056;13.616;2022-12-18T01:36:02;101624.50;;;4.69;100.00
35551;BME280;21655;46.056;13.616;2022-12-18T01:38:28;101637.47;;;4.67;100.00
35551;BME280;21655;46.056;13.616;2022-12-18T01:40:58;101644.38;;;4.72;100.00
35551;BME280;21655;46.056;13.616;2022-12-18T01:43:57;101647.13;;;4.72;100.00
35551;BME280;21655;46.056;13.616;2022-12-18T01:46:24;101643.94;;;4.66;100.00
35551;BME280;21655;46.056;13.616;2022-12-18T01:48:53;101653.19;;;4.65;100.00
35551;BME280;21655;46.056;13.616;2022-12-18T01:51:20;101654.63;;;4.70;100.00
35551;BME280;21655;46.056;13.616;2022-12-18T01:53:46;101659.13;;;4.71;100.00
35551;BME280;21655;46.056;13.616;2022-12-18T01:56:17;101662.28;;;4.65;100.00
35551;BME280;21655;46.056;13.616;2022-12-18T01:58:54;101675.94;;;4.67;100.00
35551;BME280;21655;46.056;13.616;2022-12-18T02:01:22;101669.22;;;4.71;100.00
35551;BME280;21655;46.056;13.616;2022-12-18T02:03:48;101682.94;;;4.71;100.00
35551;BME280;21655;46.056;13.616;2022-12-18T02:06:38;101684.84;;;4.70;100.00
35551;BME280;21655;46.056;13.616;2022-12-18T02:09:14;101686.47;;;4.60;100.00
35551;BME280;21655;46.056;13.616;2022-12-18T02:17:20;101691.97;;;4.60;100.00
35551;BME280;21655;46.056;13.616;2022-12-18T02:20:14;101689.00;;;4.63;100.00
35551;BME280;21655;46.056;13.616;2022-12-18T02:22:59;101700.66;;;4.67;100.00
35551;BME280;21655;46.056;13.616;2022-12-18T02:27:59;101708.53;;;4.59;100.00
35551;BME280;21655;46.056;13.616;2022-12-18T02:30:27;101686.69;;;4.57;100.00
35551;BME280;21655;46.056;13.616;2022-12-18T02:32:55;101692.81;;;4.61;100.00
35551;BME280;21655;46.056;13.616;2022-12-18T02:35:26;101708.13;;;4.65;100.00
35551;BME280;21655;46.056;13.616;2022-12-18T02:37:53;101708.75;;;4.56;100.00
35551;BME280;21655;46.056;13.616;2022-12-18T02:40:21;101713.50;;;4.54;100.00
35551;BME280;21655;46.056;13.616;2022-12-18T02:42:47;101717.91;;;4.56;100.00
35551;BME280;21655;46.056;13.616;2022-12-18T02:45:12;101723.50;;;4.55;100.00
35551;BME280;21655;46.056;13.616;2022-12-18T02:47:40;101721.81;;;4.52;100.00
35551;BME280;21655;46.056;13.616;2022-12-18T02:50:16;101734.69;;;4.52;100.00
35551;BME280;21655;46.056;13.616;2022-12-18T02:59:00;101721.41;;;4.58;100.00
35551;BME280;21655;46.056;13.616;2022-12-18T03:01:33;101709.31;;;4.61;100.00
35551;BME280;21655;46.056;13.616;2022-12-18T03:04:35;101727.91;;;4.57;100.00
35551;BME280;21655;46.056;13.616;2022-12-18T03:07:02;101724.38;;;4.55;100.00
35551;BME280;21655;46.056;13.616;2022-12-18T03:09:35;101719.22;;;4.51;100.00
35551;BME280;21655;46.056;13.616;2022-12-18T03:15:13;101727.00;;;4.44;100.00
35551;BME280;21655;46.056;13.616;2022-12-18T03:17:42;101731.19;;;4.50;100.00
35551;BME280;21655;46.056;13.616;2022-12-18T03:20:17;101750.41;;;4.50;100.00
35551;BME280;21655;46.056;13.616;2022-12-18T03:22:46;101731.50;;;4.45;100.00
35551;BME280;21655;46.056;13.616;2022-12-18T03:25:16;101742.56;;;4.44;100.00
35551;BME280;21655;46.056;13.616;2022-12-18T03:27:47;101742.16;;;4.37;100.00
35551;BME280;21655;46.056;13.616;2022-12-18T03:30:15;101748.97;;;4.32;100.00
35551;BME280;21655;46.056;13.616;2022-12-18T03:35:10;101744.09;;;4.35;100.00
35551;BME280;21655;46.056;13.616;2022-12-18T03:37:37;101741.16;;;4.38;100.00
35551;BME280;21655;46.056;13.616;2022-12-18T03:40:04;101756.00;;;4.48;100.00
35551;BME280;21655;46.056;13.616;2022-12-18T03:42:52;101764.13;;;4.50;100.00
35551;BME280;21655;46.056;13.616;2022-12-18T03:45:26;101766.44;;;4.43;100.00
35551;BME280;21655;46.056;13.616;2022-12-18T03:48:06;101765.97;;;4.37;100.00
35551;BME280;21655;46.056;13.616;2022-12-18T03:51:15;101770.25;;;4.41;100.00
35551;BME280;21655;46.056;13.616;2022-12-18T03:53:48;101783.00;;;4.42;100.00
35551;BME280;21655;46.056;13.616;2022-12-18T03:56:16;101768.50;;;4.40;100.00
35551;BME280;21655;46.056;13.616;2022-12-18T03:58:43;101774.13;;;4.38;100.00
35551;BME280;21655;46.056;13.616;2022-12-18T04:01:12;101768.72;;;4.37;100.00
35551;BME280;21655;46.056;13.616;2022-12-18T04:03:39;101773.44;;;4.35;100.00
35551;BME280;21655;46.056;13.616;2022-12-18T04:06:06;101778.25;;;4.31;100.00
35551;BME280;21655;46.056;13.616;2022-12-18T04:08:32;101775.09;;;4.37;100.00
35551;BME280;21655;46.056;13.616;2022-12-18T04:11:00;101771.69;;;4.34;100.00
35551;BME280;21655;46.056;13.616;2022-12-18T04:13:32;101783.66;;;4.33;100.00
35551;BME280;21655;46.056;13.616;2022-12-18T04:15:59;101781.13;;;4.30;100.00
35551;BME280;21655;46.056;13.616;2022-12-18T04:18:24;101782.75;;;4.32;100.00
35551;BME280;21655;46.056;13.616;2022-12-18T04:20:50;101785.72;;;4.29;100.00
35551;BME280;21655;46.056;13.616;2022-12-18T04:23:15;101785.72;;;4.29;100.00
35551;BME280;21655;46.056;13.616;2022-12-18T04:25:41;101799.53;;;4.28;100.00
35551;BME280;21655;46.056;13.616;2022-12-18T04:28:06;101805.38;;;4.23;100.00
35551;BME280;21655;46.056;13.616;2022-12-18T04:30:31;101789.66;;;4.25;100.00
35551;BME280;21655;46.056;13.616;2022-12-18T04:32:57;101806.22;;;4.24;100.00
35551;BME280;21655;46.056;13.616;2022-12-18T04:35:22;101812.50;;;4.26;100.00
35551;BME280;21655;46.056;13.616;2022-12-18T04:37:48;101817.13;;;4.25;100.00
35551;BME280;21655;46.056;13.616;2022-12-18T04:40:13;101811.31;;;4.30;100.00
35551;BME280;21655;46.056;13.616;2022-12-18T04:42:40;101821.63;;;4.26;100.00
35551;BME280;21655;46.056;13.616;2022-12-18T04:45:06;101818.50;;;4.18;100.00
35551;BME280;21655;46.056;13.616;2022-12-18T04:47:32;101817.44;;;4.21;100.00
35551;BME280;21655;46.056;13.616;2022-12-18T04:49:57;101821.38;;;4.17;100.00
35551;BME280;21655;46.056;13.616;2022-12-18T04:52:23;101838.84;;;4.16;100.00
35551;BME280;21655;46.056;13.616;2022-12-18T04:54:48;101844.41;;;4.14;100.00
35551;BME280;21655;46.056;13.616;2022-12-18T04:57:14;101848.06;;;4.15;100.00
35551;BME280;21655;46.056;13.616;2022-12-18T04:59:39;101846.28;;;4.14;100.00
35551;BME280;21655;46.056;13.616;2022-12-18T05:02:05;101854.63;;;4.12;100.00
35551;BME280;21655;46.056;13.616;2022-12-18T05:04:30;101842.03;;;4.22;100.00
35551;BME280;21655;46.056;13.616;2022-12-18T05:06:56;101856.16;;;4.16;100.00
35551;BME280;21655;46.056;13.616;2022-12-18T05:09:21;101857.28;;;4.14;100.00
35551;BME280;21655;46.056;13.616;2022-12-18T05:11:47;101865.03;;;4.07;100.00
35551;BME280;21655;46.056;13.616;2022-12-18T05:14:12;101867.78;;;4.07;100.00
35551;BME280;21655;46.056;13.616;2022-12-18T05:16:37;101861.50;;;4.05;100.00
35551;BME280;21655;46.056;13.616;2022-12-18T05:19:03;101870.03;;;4.01;100.00
35551;BME280;21655;46.056;13.616;2022-12-18T05:21:28;101872.03;;;3.99;100.00
35551;BME280;21655;46.056;13.616;2022-12-18T05:23:54;101871.81;;;4.02;100.00
35551;BME280;21655;46.056;13.616;2022-12-18T05:26:19;101876.53;;;4.00;100.00
35551;BME280;21655;46.056;13.616;2022-12-18T05:28:45;101873.78;;;4.00;100.00
35551;BME280;21655;46.056;13.616;2022-12-18T05:31:11;101877.16;;;4.03;100.00
35551;BME280;21655;46.056;13.616;2022-12-18T05:33:37;101885.31;;;4.05;100.00
35551;BME280;21655;46.056;13.616;2022-12-18T05:36:05;101888.06;;;4.05;100.00
35551;BME280;21655;46.056;13.616;2022-12-18T05:38:32;101888.97;;;4.05;100.00
35551;BME280;21655;46.056;13.616;2022-12-18T05:40:58;101883.28;;;3.94;100.00
35551;BME280;21655;46.056;13.616;2022-12-18T05:43:25;101881.53;;;3.93;100.00
35551;BME280;21655;46.056;13.616;2022-12-18T05:45:52;101866.88;;;4.07;100.00
35551;BME280;21655;46.056;13.616;2022-12-18T05:48:18;101880.22;;;4.13;100.00
35551;BME280;21655;46.056;13.616;2022-12-18T05:50:46;101889.94;;;4.04;100.00
35551;BME280;21655;46.056;13.616;2022-12-18T05:53:13;101893.19;;;3.97;100.00
35551;BME280;21655;46.056;13.616;2022-12-18T05:55:41;101888.47;;;3.99;100.00
35551;BME280;21655;46.056;13.616;2022-12-18T05:58:08;101899.97;;;3.91;100.00
35551;BME280;21655;46.056;13.616;2022-12-18T06:00:36;101895.03;;;3.96;100.00
35551;BME280;21655;46.056;13.616;2022-12-18T06:03:06;101901.72;;;3.92;100.00
35551;BME280;21655;46.056;13.616;2022-12-18T06:05:36;101898.00;;;3.93;100.00
35551;BME280;21655;46.056;13.616;2022-12-18T06:08:02;101902.28;;;3.97;100.00
35551;BME280;21655;46.056;13.616;2022-12-18T06:10:28;101897.22;;;3.91;100.00
35551;BME280;21655;46.056;13.616;2022-12-18T06:12:53;101877.03;;;3.92;100.00
35551;BME280;21655;46.056;13.616;2022-12-18T06:15:18;101879.19;;;3.87;100.00
35551;BME280;21655;46.056;13.616;2022-12-18T06:17:44;101891.81;;;3.90;100.00
35551;BME280;21655;46.056;13.616;2022-12-18T06:20:09;101895.94;;;3.97;100.00
35551;BME280;21655;46.056;13.616;2022-12-18T06:22:35;101904.47;;;3.92;100.00
35551;BME280;21655;46.056;13.616;2022-12-18T06:25:01;101915.41;;;4.06;100.00
35551;BME280;21655;46.056;13.616;2022-12-18T06:27:26;101911.97;;;4.03;100.00
35551;BME280;21655;46.056;13.616;2022-12-18T06:29:51;101906.00;;;3.96;100.00
35551;BME280;21655;46.056;13.616;2022-12-18T06:32:17;101905.81;;;3.99;100.00
35551;BME280;21655;46.056;13.616;2022-12-18T06:34:42;101898.56;;;3.98;100.00
35551;BME280;21655;46.056;13.616;2022-12-18T06:37:08;101902.28;;;3.97;100.00
35551;BME280;21655;46.056;13.616;2022-12-18T06:39:33;101907.09;;;3.94;100.00
35551;BME280;21655;46.056;13.616;2022-12-18T06:41:59;101910.16;;;3.89;100.00
35551;BME280;21655;46.056;13.616;2022-12-18T06:44:24;101910.94;;;3.91;100.00
35551;BME280;21655;46.056;13.616;2022-12-18T06:46:49;101903.28;;;3.96;100.00
35551;BME280;21655;46.056;13.616;2022-12-18T06:49:15;101917.88;;;3.97;100.00
35551;BME280;21655;46.056;13.616;2022-12-18T06:51:41;101925.22;;;3.96;100.00
35551;BME280;21655;46.056;13.616;2022-12-18T06:54:07;101928.38;;;3.90;100.00
35551;BME280;21655;46.056;13.616;2022-12-18T06:56:33;101933.94;;;4.03;100.00
35551;BME280;21655;46.056;13.616;2022-12-18T06:58:58;101930.63;;;3.98;100.00
35551;BME280;21655;46.056;13.616;2022-12-18T07:01:23;101936.28;;;3.95;100.00
35551;BME280;21655;46.056;13.616;2022-12-18T07:03:56;101936.88;;;4.00;100.00
35551;BME280;21655;46.056;13.616;2022-12-18T07:06:24;101947.56;;;4.04;100.00
35551;BME280;21655;46.056;13.616;2022-12-18T07:08:52;101935.28;;;4.10;100.00
35551;BME280;21655;46.056;13.616;2022-12-18T07:11:19;101939.69;;;4.12;100.00
35551;BME280;21655;46.056;13.616;2022-12-18T07:13:45;101941.88;;;4.07;100.00
35551;BME280;21655;46.056;13.616;2022-12-18T07:16:15;101951.25;;;4.03;100.00
35551;BME280;21655;46.056;13.616;2022-12-18T07:18:41;101959.22;;;4.08;100.00
35551;BME280;21655;46.056;13.616;2022-12-18T07:21:09;101949.47;;;4.16;100.00
35551;BME280;21655;46.056;13.616;2022-12-18T07:23:36;101971.66;;;4.13;100.00
35551;BME280;21655;46.056;13.616;2022-12-18T07:26:06;101972.72;;;4.11;100.00
35551;BME280;21655;46.056;13.616;2022-12-18T07:28:33;101980.78;;;4.14;100.00
35551;BME280;21655;46.056;13.616;2022-12-18T07:31:03;101983.63;;;4.12;100.00
35551;BME280;21655;46.056;13.616;2022-12-18T07:33:29;101989.88;;;4.14;100.00
35551;BME280;21655;46.056;13.616;2022-12-18T07:35:54;101996.34;;;4.13;100.00
35551;BME280;21655;46.056;13.616;2022-12-18T07:38:20;101989.59;;;4.19;100.00
35551;BME280;21655;46.056;13.616;2022-12-18T07:40:45;101992.41;;;4.31;100.00
35551;BME280;21655;46.056;13.616;2022-12-18T07:43:11;101996.25;;;4.29;100.00
35551;BME280;21655;46.056;13.616;2022-12-18T07:45:36;101992.41;;;4.31;100.00
35551;BME280;21655;46.056;13.616;2022-12-18T07:48:01;101995.06;;;4.33;100.00
35551;BME280;21655;46.056;13.616;2022-12-18T07:50:27;101989.28;;;4.37;100.00
35551;BME280;21655;46.056;13.616;2022-12-18T07:52:52;102009.44;;;4.36;100.00
35551;BME280;21655;46.056;13.616;2022-12-18T07:55:18;101998.47;;;4.36;100.00
35551;BME280;21655;46.056;13.616;2022-12-18T07:57:43;102010.91;;;4.42;100.00
35551;BME280;21655;46.056;13.616;2022-12-18T08:00:09;102009.81;;;4.58;100.00
35551;BME280;21655;46.056;13.616;2022-12-18T08:02:35;102017.63;;;4.64;100.00
35551;BME280;21655;46.056;13.616;2022-12-18T08:05:00;102018.38;;;4.80;100.00
35551;BME280;21655;46.056;13.616;2022-12-18T08:07:25;102017.41;;;4.94;100.00
35551;BME280;21655;46.056;13.616;2022-12-18T08:09:51;102022.59;;;4.98;100.00
35551;BME280;21655;46.056;13.616;2022-12-18T08:12:16;102018.13;;;5.10;100.00
35551;BME280;21655;46.056;13.616;2022-12-18T08:14:42;102016.53;;;5.20;100.00
35551;BME280;21655;46.056;13.616;2022-12-18T08:17:07;102026.09;;;5.27;100.00
35551;BME280;21655;46.056;13.616;2022-12-18T08:19:32;102016.94;;;6.15;100.00
35551;BME280;21655;46.056;13.616;2022-12-18T08:21:58;102024.28;;;7.80;94.81
35551;BME280;21655;46.056;13.616;2022-12-18T08:24:23;102022.53;;;7.10;91.08
35551;BME280;21655;46.056;13.616;2022-12-18T08:26:49;102029.66;;;6.05;98.02
35551;BME280;21655;46.056;13.616;2022-12-18T08:29:14;102026.69;;;5.95;100.00
35551;BME280;21655;46.056;13.616;2022-12-18T08:31:39;102034.41;;;6.51;98.83
35551;BME280;21655;46.056;13.616;2022-12-18T08:34:05;102032.06;;;6.22;98.68
35551;BME280;21655;46.056;13.616;2022-12-18T08:36:30;102035.78;;;6.08;100.00
35551;BME280;21655;46.056;13.616;2022-12-18T08:38:56;102047.03;;;6.05;100.00
35551;BME280;21655;46.056;13.616;2022-12-18T08:41:22;102051.75;;;6.41;100.00
35551;BME280;21655;46.056;13.616;2022-12-18T08:43:47;102050.41;;;10.22;86.71
35551;BME280;21655;46.056;13.616;2022-12-18T08:46:34;102038.78;;;13.03;64.25
35551;BME280;21655;46.056;13.616;2022-12-18T08:49:00;102044.00;;;14.03;57.62
35551;BME280;21655;46.056;13.616;2022-12-18T08:51:26;102049.66;;;15.20;52.60
35551;BME280;21655;46.056;13.616;2022-12-18T08:53:51;102056.03;;;15.30;49.08
35551;BME280;21655;46.056;13.616;2022-12-18T08:56:16;102059.84;;;16.67;47.73
35551;BME280;21655;46.056;13.616;2022-12-18T08:58:42;102064.19;;;16.05;46.23
35551;BME280;21655;46.056;13.616;2022-12-18T09:01:09;102064.56;;;16.34;44.95
35551;BME280;21655;46.056;13.616;2022-12-18T09:03:36;102065.03;;;16.78;44.18
35551;BME280;21655;46.056;13.616;2022-12-18T09:06:02;102069.63;;;16.31;43.85
35551;BME280;21655;46.056;13.616;2022-12-18T09:08:27;102075.25;;;16.55;43.00
35551;BME280;21655;46.056;13.616;2022-12-18T09:10:53;102069.47;;;16.48;42.54
35551;BME280;21655;46.056;13.616;2022-12-18T09:13:19;102073.28;;;17.33;41.99
35551;BME280;21655;46.056;13.616;2022-12-18T09:15:50;102073.03;;;16.97;41.68
35551;BME280;21655;46.056;13.616;2022-12-18T09:18:17;102081.16;;;18.44;40.21
35551;BME280;21655;46.056;13.616;2022-12-18T09:20:43;102076.84;;;17.88;40.30
35551;BME280;21655;46.056;13.616;2022-12-18T09:23:09;102077.72;;;17.58;40.45
35551;BME280;21655;46.056;13.616;2022-12-18T09:25:35;102084.94;;;17.53;39.14
35551;BME280;21655;46.056;13.616;2022-12-18T09:28:06;102088.94;;;17.12;40.24
35551;BME280;21655;46.056;13.616;2022-12-18T09:30:37;102092.56;;;18.20;38.86
35551;BME280;21655;46.056;13.616;2022-12-18T09:33:02;102088.69;;;17.76;38.96
35551;BME280;21655;46.056;13.616;2022-12-18T09:35:28;102094.16;;;17.39;40.26
35551;BME280;21655;46.056;13.616;2022-12-18T09:37:53;102096.81;;;17.63;38.84
35551;BME280;21655;46.056;13.616;2022-12-18T09:40:22;102091.66;;;18.27;38.26
35551;BME280;21655;46.056;13.616;2022-12-18T09:42:53;102084.41;;;19.21;37.30
35551;BME280;21655;46.056;13.616;2022-12-18T09:45:21;102092.81;;;19.06;36.33
35551;BME280;21655;46.056;13.616;2022-12-18T09:47:48;102091.03;;;18.77;36.44
35551;BME280;21655;46.056;13.616;2022-12-18T09:50:29;102090.59;;;18.28;37.13
35551;BME280;21655;46.056;13.616;2022-12-18T09:53:02;102087.69;;;19.89;35.31
35551;BME280;21655;46.056;13.616;2022-12-18T09:55:55;102093.78;;;19.13;36.10
35551;BME280;21655;46.056;13.616;2022-12-18T10:00:52;102088.28;;;19.20;36.07
35551;BME280;21655;46.056;13.616;2022-12-18T10:03:18;102065.47;;;19.15;35.81
35551;BME280;21655;46.056;13.616;2022-12-18T10:06:05;102082.03;;;17.99;37.49
35551;BME280;21655;46.056;13.616;2022-12-18T10:11:56;102073.81;;;18.57;36.50
35551;BME280;21655;46.056;13.616;2022-12-18T10:22:22;102083.03;;;17.45;37.63
35551;BME280;21655;46.056;13.616;2022-12-18T10:27:39;102076.09;;;15.91;39.29
35551;BME280;21655;46.056;13.616;2022-12-18T10:30:13;102072.78;;;16.28;39.23
35551;BME280;21655;46.056;13.616;2022-12-18T10:32:39;102064.03;;;15.91;39.92
35551;BME280;21655;46.056;13.616;2022-12-18T10:35:18;102062.47;;;15.31;41.28
35551;BME280;21655;46.056;13.616;2022-12-18T10:40:28;102057.38;;;15.68;40.21
35551;BME280;21655;46.056;13.616;2022-12-18T10:43:04;102062.56;;;15.55;41.12
35551;BME280;21655;46.056;13.616;2022-12-18T10:45:31;102052.50;;;15.86;41.14
35551;BME280;21655;46.056;13.616;2022-12-18T10:47:56;102052.09;;;15.65;40.42
35551;BME280;21655;46.056;13.616;2022-12-18T10:53:03;102045.63;;;15.15;41.49
35551;BME280;21655;46.056;13.616;2022-12-18T10:55:47;102039.25;;;14.97;41.31
35551;BME280;21655;46.056;13.616;2022-12-18T10:58:31;102038.22;;;14.98;41.54
35551;BME280;21655;46.056;13.616;2022-12-18T11:03:35;102032.72;;;15.22;41.53
35551;BME280;21655;46.056;13.616;2022-12-18T11:06:24;102030.94;;;15.13;41.45
35551;BME280;21655;46.056;13.616;2022-12-18T11:09:19;102023.81;;;15.18;41.58
35551;BME280;21655;46.056;13.616;2022-12-18T11:12:17;102019.81;;;15.21;42.13
35551;BME280;21655;46.056;13.616;2022-12-18T11:14:50;102021.91;;;15.27;41.42
35551;BME280;21655;46.056;13.616;2022-12-18T11:17:20;102020.47;;;15.15;42.14
35551;BME280;21655;46.056;13.616;2022-12-18T11:19:53;102030.09;;;15.20;41.97
35551;BME280;21655;46.056;13.616;2022-12-18T11:22:23;102026.22;;;14.72;41.62
35551;BME280;21655;46.056;13.616;2022-12-18T11:24:55;102030.72;;;15.32;41.50
35551;BME280;21655;46.056;13.616;2022-12-18T11:27:21;102037.13;;;14.58;42.19
35551;BME280;21655;46.056;13.616;2022-12-18T11:29:49;102033.97;;;14.53;43.13
35551;BME280;21655;46.056;13.616;2022-12-18T11:32:27;102015.75;;;15.15;41.57
35551;BME280;21655;46.056;13.616;2022-12-18T11:37:43;102027.00;;;14.57;42.56
35551;BME280;21655;46.056;13.616;2022-12-18T11:40:16;102032.53;;;14.23;43.74
35551;BME280;21655;46.056;13.616;2022-12-18T11:42:52;102016.75;;;14.65;43.30
35551;BME280;21655;46.056;13.616;2022-12-18T11:45:30;102028.66;;;13.99;43.52
35551;BME280;21655;46.056;13.616;2022-12-18T11:50:55;102023.34;;;14.13;43.09
35551;BME280;21655;46.056;13.616;2022-12-18T11:53:22;102023.13;;;14.50;43.69
35551;BME280;21655;46.056;13.616;2022-12-18T12:01:33;102021.75;;;14.54;42.44
35551;BME280;21655;46.056;13.616;2022-12-18T12:17:40;102007.06;;;14.18;44.69
35551;BME280;21655;46.056;13.616;2022-12-18T12:20:13;102002.78;;;14.14;44.47
35551;BME280;21655;46.056;13.616;2022-12-18T12:31:20;101994.94;;;14.10;44.38
35551;BME280;21655;46.056;13.616;2022-12-18T12:34:34;102002.66;;;14.16;44.15
35551;BME280;21655;46.056;13.616;2022-12-18T12:39:53;102008.13;;;13.65;44.47
35551;BME280;21655;46.056;13.616;2022-12-18T12:42:30;102001.91;;;13.36;44.90
35551;BME280;21655;46.056;13.616;2022-12-18T12:45:21;102009.13;;;13.99;44.81
35551;BME280;21655;46.056;13.616;2022-12-18T12:47:49;102008.50;;;14.30;43.57
35551;BME280;21655;46.056;13.616;2022-12-18T12:50:18;102021.22;;;14.07;44.21
35551;BME280;21655;46.056;13.616;2022-12-18T12:52:47;102012.31;;;14.21;43.46
35551;BME280;21655;46.056;13.616;2022-12-18T12:55:21;102023.81;;;13.48;45.95
35551;BME280;21655;46.056;13.616;2022-12-18T13:00:53;102022.03;;;14.00;44.32
35551;BME280;21655;46.056;13.616;2022-12-18T13:04:23;102016.72;;;14.14;44.59
35551;BME280;21655;46.056;13.616;2022-12-18T13:06:42;102018.16;;;13.93;44.78
35551;BME280;21655;46.056;13.616;2022-12-18T13:09:11;102027.25;;;13.60;44.90
35551;BME280;21655;46.056;13.616;2022-12-18T13:14:27;102040.75;;;13.90;45.32
35551;BME280;21655;46.056;13.616;2022-12-18T13:19:49;102041.44;;;13.22;45.44
35551;BME280;21655;46.056;13.616;2022-12-18T13:22:25;102038.53;;;12.97;46.26
35551;BME280;21655;46.056;13.616;2022-12-18T13:24:53;102027.19;;;12.35;47.14
35551;BME280;21655;46.056;13.616;2022-12-18T13:41:01;102040.69;;;12.66;48.35
35551;BME280;21655;46.056;13.616;2022-12-18T13:46:16;102033.06;;;12.68;48.15
35551;BME280;21655;46.056;13.616;2022-12-18T13:51:53;102044.13;;;11.95;49.40
35551;BME280;21655;46.056;13.616;2022-12-18T13:54:32;102037.47;;;11.20;51.14
35551;BME280;21655;46.056;13.616;2022-12-18T13:56:59;102036.34;;;11.42;51.66
35551;BME280;21655;46.056;13.616;2022-12-18T13:59:32;102036.41;;;10.93;52.06
35551;BME280;21655;46.056;13.616;2022-12-18T14:02:00;102029.13;;;11.11;53.26
35551;BME280;21655;46.056;13.616;2022-12-18T14:04:32;102033.69;;;11.21;53.44
35551;BME280;21655;46.056;13.616;2022-12-18T14:09:35;102024.94;;;10.68;54.32
35551;BME280;21655;46.056;13.616;2022-12-18T14:12:01;102032.66;;;9.93;55.61
35551;BME280;21655;46.056;13.616;2022-12-18T14:14:48;102019.84;;;8.45;60.50
35551;BME280;21655;46.056;13.616;2022-12-18T14:17:15;102027.94;;;7.46;67.31
35551;BME280;21655;46.056;13.616;2022-12-18T14:19:48;102030.31;;;6.93;74.44
35551;BME280;21655;46.056;13.616;2022-12-18T14:22:24;102017.22;;;6.60;82.13
35551;BME280;21655;46.056;13.616;2022-12-18T14:27:45;102028.72;;;6.17;92.89
35551;BME280;21655;46.056;13.616;2022-12-18T14:30:33;102029.22;;;5.98;97.14
35551;BME280;21655;46.056;13.616;2022-12-18T14:33:21;102025.31;;;5.76;100.00
35551;BME280;21655;46.056;13.616;2022-12-18T14:36:01;102034.88;;;5.70;100.00
35551;BME280;21655;46.056;13.616;2022-12-18T14:38:39;102038.72;;;5.68;100.00
35551;BME280;21655;46.056;13.616;2022-12-18T14:41:15;102047.31;;;5.63;100.00
35551;BME280;21655;46.056;13.616;2022-12-18T14:43:43;102048.50;;;5.59;100.00
35551;BME280;21655;46.056;13.616;2022-12-18T14:46:28;102044.19;;;5.43;100.00
35551;BME280;21655;46.056;13.616;2022-12-18T14:48:54;102048.38;;;5.36;100.00